^^
Grace C. Lehan Memorial Weather Station Historical Data
Daily Summary for September 9, 2022 Units:  Both    English   Metric
Daily Weekly Monthly Yearly
  High: Low: Average:
Temperature: 53.7 °F /  12.1 °C 33.9 °F /  1.1 °C 44.8 °F /  7.1 °C
Dew Point: 37.7 °F /  3.2 °C 24.1 °F /  -4.4 °C 29.7 °F /  -1.3 °C
Humidity: 84% 34% 57%
Wind Speed: 2.2mph /  3.5km/h - 0.1mph /  0.2km/h
Wind Gust: 6mph /  9.7km/h - -
Wind- - East
Pressure: 30.65 in /  1037.8 hPa 30.46 in /  1031.4 hPa -
Precipitation: 0.00 in /  0 mm    
 
 
Tabular Data for September 9, 2022
Time Temperature Dew Point Pressure Wind Wind Speed Wind Gust Humidity Rainfall Rate (Hourly) solar
00:04 40.2 °F /  4.6 °C 24.1 °F /  -4.4 °C 30.62in /  1036.8hPa Calm   2mph /  3.2km/h 52.1% 0.00in /  0mm 0 W/m2
00:09 40.1 °F /  4.5 °C 24.3 °F /  -4.3 °C 30.62in /  1036.8hPa NNE 0.2mph /  0.3km/h 4mph /  6.4km/h 53% 0.00in /  0mm 0 W/m2
00:14 39.9 °F /  4.4 °C 24.6 °F /  -4.1 °C 30.62in /  1036.8hPa North 0.3mph /  0.5km/h 5mph /  8km/h 53.8% 0.00in /  0mm 0 W/m2
00:19 39.8 °F /  4.3 °C 24.1 °F /  -4.4 °C 30.63in /  1037.1hPa NE 0.4mph /  0.6km/h 5mph /  8km/h 53% 0.00in /  0mm 0 W/m2
00:24 39.8 °F /  4.3 °C 24.4 °F /  -4.2 °C 30.63in /  1037.1hPa ENE 0.1mph /  0.2km/h 5mph /  8km/h 53.7% 0.00in /  0mm 0 W/m2
00:29 39.8 °F /  4.3 °C 24.5 °F /  -4.2 °C 30.63in /  1037.1hPa ENE 0.4mph /  0.6km/h 5mph /  8km/h 54% 0.00in /  0mm 0 W/m2
00:34 39.7 °F /  4.3 °C 24.4 °F /  -4.2 °C 30.63in /  1037.1hPa Calm   5mph /  8km/h 54% 0.00in /  0mm 0 W/m2
00:39 39.6 °F /  4.2 °C 24.5 °F /  -4.2 °C 30.63in /  1037.1hPa NE 0.2mph /  0.3km/h 4mph /  6.4km/h 54.3% 0.00in /  0mm 0 W/m2
00:44 39.5 °F /  4.2 °C 24.4 °F /  -4.2 °C 30.63in /  1037.1hPa NE 0.1mph /  0.2km/h 4mph /  6.4km/h 54.3% 0.00in /  0mm 0 W/m2
00:49 39.5 °F /  4.2 °C 24.5 °F /  -4.2 °C 30.63in /  1037.1hPa Calm   4mph /  6.4km/h 54.7% 0.00in /  0mm 0 W/m2
00:54 39.3 °F /  4.1 °C 24.5 °F /  -4.2 °C 30.63in /  1037.1hPa Calm   4mph /  6.4km/h 54.8% 0.00in /  0mm 0 W/m2
00:59 39.2 °F /  4 °C 24.9 °F /  -3.9 °C 30.63in /  1037.1hPa Calm   4mph /  6.4km/h 56% 0.00in /  0mm 0 W/m2
01:04 39.1 °F /  3.9 °C 24.7 °F /  -4.1 °C 30.63in /  1037.1hPa Calm   4mph /  6.4km/h 56% 0.00in /  0mm 0 W/m2
01:09 38.9 °F /  3.8 °C 24.8 °F /  -4 °C 30.63in /  1037.1hPa NE 0.2mph /  0.3km/h 3mph /  4.8km/h 56.6% 0.00in /  0mm 0 W/m2
01:14 38.7 °F /  3.7 °C 24.8 °F /  -4 °C 30.63in /  1037.1hPa NNE 0.3mph /  0.5km/h 4mph /  6.4km/h 57% 0.00in /  0mm 0 W/m2
01:19 38.6 °F /  3.7 °C 24.7 °F /  -4.1 °C 30.63in /  1037.1hPa Calm   4mph /  6.4km/h 57% 0.00in /  0mm 0 W/m2
01:24 38.4 °F /  3.6 °C 24.9 °F /  -3.9 °C 30.64in /  1037.5hPa NNE 0.3mph /  0.5km/h 4mph /  6.4km/h 57.9% 0.00in /  0mm 0 W/m2
01:29 38.3 °F /  3.5 °C 24.8 °F /  -4 °C 30.64in /  1037.5hPa North 0.1mph /  0.2km/h 4mph /  6.4km/h 58% 0.00in /  0mm 0 W/m2
01:34 38.2 °F /  3.4 °C 24.9 °F /  -3.9 °C 30.64in /  1037.5hPa Calm   4mph /  6.4km/h 58.3% 0.00in /  0mm 0 W/m2
01:39 38 °F /  3.3 °C 24.6 °F /  -4.1 °C 30.64in /  1037.5hPa Calm   1mph /  1.6km/h 58% 0.00in /  0mm 0 W/m2
01:44 38 °F /  3.3 °C 24.5 °F /  -4.2 °C 30.64in /  1037.5hPa Calm   1mph /  1.6km/h 58.1% 0.00in /  0mm 0 W/m2
01:49 37.9 °F /  3.3 °C 24.8 °F /  -4 °C 30.64in /  1037.5hPa Calm   1mph /  1.6km/h 59% 0.00in /  0mm 0 W/m2
01:54 37.7 °F /  3.2 °C 24.7 °F /  -4.1 °C 30.64in /  1037.5hPa Calm   1mph /  1.6km/h 59% 0.00in /  0mm 0 W/m2
01:59 37.6 °F /  3.1 °C 24.5 °F /  -4.2 °C 30.64in /  1037.5hPa Calm   1mph /  1.6km/h 59% 0.00in /  0mm 0 W/m2
02:04 37.5 °F /  3.1 °C 24.5 °F /  -4.2 °C 30.64in /  1037.5hPa Calm   1mph /  1.6km/h 59.2% 0.00in /  0mm 0 W/m2
02:09 37.3 °F /  2.9 °C 24.7 °F /  -4.1 °C 30.64in /  1037.5hPa Calm     60% 0.00in /  0mm 0 W/m2
02:14 37.1 °F /  2.8 °C 24.9 °F /  -3.9 °C 30.64in /  1037.5hPa Calm     60.8% 0.00in /  0mm 0 W/m2
02:19 37 °F /  2.8 °C 24.8 °F /  -4 °C 30.64in /  1037.5hPa Calm     61.1% 0.00in /  0mm 0 W/m2
02:21 36.9 °F /  2.7 °C 25.1 °F /  -3.8 °C 30.63in /  1037.1hPa Calm     62% 0.00in /  0mm 0 W/m2
02:30 36.5 °F /  2.5 °C 25.1 °F /  -3.8 °C 30.63in /  1037.1hPa Calm     63% 0.00in /  0mm 0 W/m2
03:00 36.1 °F /  2.3 °C 24.7 °F /  -4.1 °C 30.63in /  1037.1hPa Calm   5mph /  8km/h 63% 0.00in /  0mm 0 W/m2
03:30 36.1 °F /  2.3 °C 24.4 °F /  -4.2 °C 30.64in /  1037.5hPa Calm   3mph /  4.8km/h 62% 0.00in /  0mm 0 W/m2
04:04 35.6 °F /  2 °C 24.3 °F /  -4.3 °C 30.64in /  1037.5hPa Calm   3mph /  4.8km/h 62.9% 0.00in /  0mm 0 W/m2
04:09 35.6 °F /  2 °C 24.2 °F /  -4.3 °C 30.63in /  1037.1hPa Calm     63% 0.00in /  0mm 0 W/m2
04:14 35.5 °F /  1.9 °C 24.4 °F /  -4.2 °C 30.63in /  1037.1hPa Calm     63.7% 0.00in /  0mm 0 W/m2
04:19 35.4 °F /  1.9 °C 24.4 °F /  -4.2 °C 30.63in /  1037.1hPa Calm     64% 0.00in /  0mm 0 W/m2
04:24 35.3 °F /  1.8 °C 24.5 °F /  -4.2 °C 30.63in /  1037.1hPa Calm     64.5% 0.00in /  0mm 0 W/m2
04:29 35.3 °F /  1.8 °C 24.6 °F /  -4.1 °C 30.63in /  1037.1hPa Calm     64.8% 0.00in /  0mm 0 W/m2
04:34 35.2 °F /  1.8 °C 24.6 °F /  -4.1 °C 30.63in /  1037.1hPa Calm     65% 0.00in /  0mm 0 W/m2
04:39 35.1 °F /  1.7 °C 24.6 °F /  -4.1 °C 30.63in /  1037.1hPa NNE 0.1mph /  0.2km/h 2mph /  3.2km/h 65.1% 0.00in /  0mm 0 W/m2
04:44 35.1 °F /  1.7 °C 24.5 °F /  -4.2 °C 30.63in /  1037.1hPa Calm   2mph /  3.2km/h 65% 0.00in /  0mm 0 W/m2
04:49 35 °F /  1.7 °C 24.5 °F /  -4.2 °C 30.63in /  1037.1hPa Calm   2mph /  3.2km/h 65% 0.00in /  0mm 0 W/m2
04:54 35 °F /  1.7 °C 24.8 °F /  -4 °C 30.62in /  1036.8hPa Calm   2mph /  3.2km/h 66% 0.00in /  0mm 0 W/m2
04:59 34.8 °F /  1.6 °C 24.6 °F /  -4.1 °C 30.62in /  1036.8hPa Calm   2mph /  3.2km/h 66% 0.00in /  0mm 0 W/m2
05:04 34.8 °F /  1.6 °C 24.7 °F /  -4.1 °C 30.62in /  1036.8hPa Calm   2mph /  3.2km/h 66.4% 0.00in /  0mm 0 W/m2
05:09 34.7 °F /  1.5 °C 24.8 °F /  -4 °C 30.62in /  1036.8hPa Calm     67% 0.00in /  0mm 0 W/m2
05:14 34.6 °F /  1.4 °C 24.7 °F /  -4.1 °C 30.62in /  1036.8hPa Calm     66.8% 0.00in /  0mm 0 W/m2
05:19 34.5 °F /  1.4 °C 24.7 °F /  -4.1 °C 30.62in /  1036.8hPa North 0.1mph /  0.2km/h 4mph /  6.4km/h 67% 0.00in /  0mm 0 W/m2
05:24 34.5 °F /  1.4 °C 24.7 °F /  -4.1 °C 30.62in /  1036.8hPa Calm   4mph /  6.4km/h 67% 0.00in /  0mm 0 W/m2
05:29 34.4 °F /  1.3 °C 24.6 °F /  -4.1 °C 30.63in /  1037.1hPa Calm   4mph /  6.4km/h 67% 0.00in /  0mm 0 W/m2
05:34 34.4 °F /  1.3 °C 24.8 °F /  -4 °C 30.63in /  1037.1hPa North 0.1mph /  0.2km/h 4mph /  6.4km/h 67.5% 0.00in /  0mm 0 W/m2
05:39 34.4 °F /  1.3 °C 24.8 °F /  -4 °C 30.63in /  1037.1hPa North 0.2mph /  0.3km/h 2mph /  3.2km/h 67.6% 0.00in /  0mm 0 W/m2
05:44 34.3 °F /  1.3 °C 24.9 °F /  -3.9 °C 30.63in /  1037.1hPa North 0.2mph /  0.3km/h 4mph /  6.4km/h 68% 0.00in /  0mm 0 W/m2
05:49 34.3 °F /  1.3 °C 24.8 °F /  -4 °C 30.63in /  1037.1hPa North 0.1mph /  0.2km/h 4mph /  6.4km/h 67.8% 0.00in /  0mm 0 W/m2
05:54 34.3 °F /  1.3 °C 24.9 °F /  -3.9 °C 30.63in /  1037.1hPa North 0.1mph /  0.2km/h 4mph /  6.4km/h 68% 0.00in /  0mm 0 W/m2
05:59 34.3 °F /  1.3 °C 24.9 °F /  -3.9 °C 30.63in /  1037.1hPa North 0.1mph /  0.2km/h 4mph /  6.4km/h 68% 0.00in /  0mm 0 W/m2
06:04 34.2 °F /  1.2 °C 24.8 °F /  -4 °C 30.63in /  1037.1hPa Calm   4mph /  6.4km/h 68% 0.00in /  0mm 0 W/m2
06:09 34.2 °F /  1.2 °C 24.8 °F /  -4 °C 30.63in /  1037.1hPa North 0.2mph /  0.3km/h 2mph /  3.2km/h 68% 0.00in /  0mm 0 W/m2
06:14 34.1 °F /  1.2 °C 24.7 °F /  -4.1 °C 30.63in /  1037.1hPa Calm   2mph /  3.2km/h 68% 0.00in /  0mm 0 W/m2
06:19 34.1 °F /  1.2 °C 24.7 °F /  -4.1 °C 30.63in /  1037.1hPa Calm   2mph /  3.2km/h 68% 0.00in /  0mm 0 W/m2
06:20 34.1 °F /  1.2 °C 24.7 °F /  -4.1 °C 30.63in /  1037.1hPa Calm   2mph /  3.2km/h 68% 0.00in /  0mm 0 W/m2
06:30 34 °F /  1.1 °C 24.9 °F /  -3.9 °C 30.64in /  1037.5hPa Calm   2mph /  3.2km/h 69% 0.00in /  0mm 0 W/m2
07:00 33.9 °F /  1.1 °C 25.2 °F /  -3.8 °C 30.63in /  1037.1hPa Calm     70% 0.00in /  0mm 12 W/m2
07:30 38 °F /  3.3 °C 27.3 °F /  -2.6 °C 30.64in /  1037.5hPa Calm     65% 0.00in /  0mm 82 W/m2
08:04 41.8 °F /  5.4 °C 27.9 °F /  -2.3 °C 30.64in /  1037.5hPa Calm     57.5% 0.00in /  0mm 211 W/m2
08:09 42.2 °F /  5.7 °C 28.3 °F /  -2.1 °C 30.65in /  1037.8hPa NE 0.2mph /  0.3km/h 4mph /  6.4km/h 57.5% 0.00in /  0mm 244 W/m2
08:14 42.5 °F /  5.8 °C 28.3 °F /  -2.1 °C 30.65in /  1037.8hPa North 0.7mph /  1.1km/h 4mph /  6.4km/h 57% 0.00in /  0mm 283 W/m2
08:19 42.9 °F /  6.1 °C 28.4 °F /  -2 °C 30.64in /  1037.5hPa North 0.1mph /  0.2km/h 4mph /  6.4km/h 56.2% 0.00in /  0mm 301 W/m2
08:24 43.2 °F /  6.2 °C 28.1 °F /  -2.2 °C 30.64in /  1037.5hPa NNE 0.2mph /  0.3km/h 4mph /  6.4km/h 55% 0.00in /  0mm 311 W/m2
08:29 43.5 °F /  6.4 °C 28.5 °F /  -1.9 °C 30.65in /  1037.8hPa NNE 0.4mph /  0.6km/h 4mph /  6.4km/h 55.2% 0.00in /  0mm 327 W/m2
08:34 43.9 °F /  6.6 °C 28.5 °F /  -1.9 °C 30.65in /  1037.8hPa North 0.8mph /  1.3km/h 4mph /  6.4km/h 54.4% 0.00in /  0mm 338 W/m2
08:39 44.2 °F /  6.8 °C 28.3 °F /  -2.1 °C 30.65in /  1037.8hPa NNW 2.2mph /  3.5km/h 6mph /  9.7km/h 53.3% 0.00in /  0mm 346 W/m2
08:44 44.4 °F /  6.9 °C 28.4 °F /  -2 °C 30.65in /  1037.8hPa NE 0.9mph /  1.4km/h 6mph /  9.7km/h 53.1% 0.00in /  0mm 355 W/m2
08:49 44.7 °F /  7.1 °C 28.8 °F /  -1.8 °C 30.65in /  1037.8hPa ENE 0.3mph /  0.5km/h 6mph /  9.7km/h 53.5% 0.00in /  0mm 367 W/m2
08:54 45.2 °F /  7.3 °C 29.1 °F /  -1.6 °C 30.65in /  1037.8hPa NE 0.4mph /  0.6km/h 6mph /  9.7km/h 53.1% 0.00in /  0mm 380 W/m2
08:59 45.7 °F /  7.6 °C 28.9 °F /  -1.7 °C 30.64in /  1037.5hPa NNE 0.4mph /  0.6km/h 6mph /  9.7km/h 51.5% 0.00in /  0mm 390 W/m2
09:04 46 °F /  7.8 °C 28.8 °F /  -1.8 °C 30.65in /  1037.8hPa NNE 1mph /  1.6km/h 6mph /  9.7km/h 50.7% 0.00in /  0mm 401 W/m2
09:09 45.9 °F /  7.7 °C 29.3 °F /  -1.5 °C 30.65in /  1037.8hPa NNE 0.1mph /  0.2km/h 4mph /  6.4km/h 52% 0.00in /  0mm 406 W/m2
09:14 45.9 °F /  7.7 °C 29.4 °F /  -1.4 °C 30.65in /  1037.8hPa NNE 0.3mph /  0.5km/h 4mph /  6.4km/h 52.2% 0.00in /  0mm 399 W/m2
09:19 45.8 °F /  7.7 °C 29.1 °F /  -1.6 °C 30.65in /  1037.8hPa NE 0.4mph /  0.6km/h 4mph /  6.4km/h 51.7% 0.00in /  0mm 397 W/m2
09:24 45.5 °F /  7.5 °C 28.2 °F /  -2.1 °C 30.65in /  1037.8hPa Calm   4mph /  6.4km/h 50.5% 0.00in /  0mm 441 W/m2
09:29 45.5 °F /  7.5 °C 29.3 °F /  -1.5 °C 30.65in /  1037.8hPa NE 0.9mph /  1.4km/h 4mph /  6.4km/h 52.8% 0.00in /  0mm 429 W/m2
09:34 45.5 °F /  7.5 °C 28.4 °F /  -2 °C 30.65in /  1037.8hPa NE 0.6mph /  1km/h 4mph /  6.4km/h 51% 0.00in /  0mm 366 W/m2
09:39 45.2 °F /  7.3 °C 27.9 °F /  -2.3 °C 30.64in /  1037.5hPa Calm   4mph /  6.4km/h 50.5% 0.00in /  0mm 223 W/m2
09:44 45 °F /  7.2 °C 28.5 °F /  -1.9 °C 30.64in /  1037.5hPa NE 1.3mph /  2.1km/h 5mph /  8km/h 52.2% 0.00in /  0mm 294 W/m2
09:49 45 °F /  7.2 °C 28.5 °F /  -1.9 °C 30.64in /  1037.5hPa NE 0.3mph /  0.5km/h 5mph /  8km/h 51.9% 0.00in /  0mm 381 W/m2
09:54 45.2 °F /  7.3 °C 28.7 °F /  -1.8 °C 30.64in /  1037.5hPa Calm   5mph /  8km/h 52.1% 0.00in /  0mm 373 W/m2
09:59 45.4 °F /  7.4 °C 29.1 °F /  -1.6 °C 30.64in /  1037.5hPa NNE 0.5mph /  0.8km/h 5mph /  8km/h 52.6% 0.00in /  0mm 315 W/m2
10:04 45.7 °F /  7.6 °C 29.1 °F /  -1.6 °C 30.64in /  1037.5hPa NNE 0.5mph /  0.8km/h 5mph /  8km/h 52% 0.00in /  0mm 380 W/m2
10:09 46 °F /  7.8 °C 29.2 °F /  -1.6 °C 30.64in /  1037.5hPa NNE 1.4mph /  2.3km/h 5mph /  8km/h 51.6% 0.00in /  0mm 520 W/m2
10:14 46.5 °F /  8.1 °C 28.9 °F /  -1.7 °C 30.63in /  1037.1hPa NE 0.1mph /  0.2km/h 5mph /  8km/h 50% 0.00in /  0mm 524 W/m2
10:19 47 °F /  8.3 °C 29.3 °F /  -1.5 °C 30.63in /  1037.1hPa NE 0.2mph /  0.3km/h 5mph /  8km/h 49.8% 0.00in /  0mm 531 W/m2
10:24 47.8 °F /  8.8 °C 29.9 °F /  -1.2 °C 30.63in /  1037.1hPa NE 0.2mph /  0.3km/h 5mph /  8km/h 49.6% 0.00in /  0mm 536 W/m2
10:29 48.7 °F /  9.3 °C 30.1 °F /  -1.1 °C 30.63in /  1037.1hPa Calm   5mph /  8km/h 48.4% 0.00in /  0mm 540 W/m2
10:34 49.3 °F /  9.6 °C 30.6 °F /  -0.8 °C 30.63in /  1037.1hPa NE 0.2mph /  0.3km/h 5mph /  8km/h 48.2% 0.00in /  0mm 531 W/m2
10:39 49.7 °F /  9.8 °C 30 °F /  -1.1 °C 30.63in /  1037.1hPa Calm   2mph /  3.2km/h 46.5% 0.00in /  0mm 552 W/m2
10:44 49.8 °F /  9.9 °C 28.9 °F /  -1.7 °C 30.63in /  1037.1hPa Calm   2mph /  3.2km/h 44.2% 0.00in /  0mm 552 W/m2
10:49 49.3 °F /  9.6 °C 28 °F /  -2.2 °C 30.63in /  1037.1hPa Calm   2mph /  3.2km/h 43.4% 0.00in /  0mm 519 W/m2
10:54 48.8 °F /  9.3 °C 28.4 °F /  -2 °C 30.63in /  1037.1hPa Calm   2mph /  3.2km/h 45% 0.00in /  0mm 141 W/m2
10:59 48.6 °F /  9.2 °C 28.2 °F /  -2.1 °C 30.63in /  1037.1hPa NE 0.3mph /  0.5km/h 2mph /  3.2km/h 45% 0.00in /  0mm 139 W/m2
11:04 48.1 °F /  8.9 °C 27.5 °F /  -2.5 °C 30.63in /  1037.1hPa Calm   2mph /  3.2km/h 44.5% 0.00in /  0mm 308 W/m2
11:09 47.7 °F /  8.7 °C 27.4 °F /  -2.6 °C 30.63in /  1037.1hPa Calm     45% 0.00in /  0mm 526 W/m2
11:14 47.5 °F /  8.6 °C 27.5 °F /  -2.5 °C 30.62in /  1036.8hPa NE 0.1mph /  0.2km/h 2mph /  3.2km/h 45.5% 0.00in /  0mm 508 W/m2
11:19 47.5 °F /  8.6 °C 28 °F /  -2.2 °C 30.62in /  1036.8hPa Calm   2mph /  3.2km/h 46.4% 0.00in /  0mm 336 W/m2
11:24 47.7 °F /  8.7 °C 28.2 °F /  -2.1 °C 30.61in /  1036.5hPa Calm   2mph /  3.2km/h 46.5% 0.00in /  0mm 330 W/m2
11:29 48 °F /  8.9 °C 28.5 °F /  -1.9 °C 30.62in /  1036.8hPa NE 0.3mph /  0.5km/h 5mph /  8km/h 46.6% 0.00in /  0mm 260 W/m2
11:34 48.4 °F /  9.1 °C 29.2 °F /  -1.6 °C 30.61in /  1036.5hPa NE 0.2mph /  0.3km/h 5mph /  8km/h 47.2% 0.00in /  0mm 230 W/m2
11:39 48.9 °F /  9.4 °C 28.6 °F /  -1.9 °C 30.61in /  1036.5hPa NNE 0.5mph /  0.8km/h 4mph /  6.4km/h 45.2% 0.00in /  0mm 504 W/m2
11:44 49.3 °F /  9.6 °C 29.2 °F /  -1.6 °C 30.61in /  1036.5hPa Calm   4mph /  6.4km/h 45.5% 0.00in /  0mm 545 W/m2
11:49 49.5 °F /  9.7 °C 28.7 °F /  -1.8 °C 30.61in /  1036.5hPa Calm   4mph /  6.4km/h 44.3% 0.00in /  0mm 545 W/m2
11:54 49.6 °F /  9.8 °C 28 °F /  -2.2 °C 30.61in /  1036.5hPa Calm   4mph /  6.4km/h 43% 0.00in /  0mm 362 W/m2
11:59 49.7 °F /  9.8 °C 28.1 °F /  -2.2 °C 30.61in /  1036.5hPa Calm   4mph /  6.4km/h 43% 0.00in /  0mm 329 W/m2
12:04 49.6 °F /  9.8 °C 28.5 °F /  -1.9 °C 30.60in /  1036.1hPa Calm     43.8% 0.00in /  0mm 109 W/m2
12:09 49.6 °F /  9.8 °C 27.8 °F /  -2.3 °C 30.60in /  1036.1hPa Calm     42.7% 0.00in /  0mm 100 W/m2
12:14 49.5 °F /  9.7 °C 28.3 °F /  -2.1 °C 30.60in /  1036.1hPa NNE 0.1mph /  0.2km/h 2mph /  3.2km/h 43.5% 0.00in /  0mm 555 W/m2
12:19 49.7 °F /  9.8 °C 28 °F /  -2.2 °C 30.60in /  1036.1hPa NNE 0.1mph /  0.2km/h 2mph /  3.2km/h 42.8% 0.00in /  0mm 555 W/m2
12:24 49.6 °F /  9.8 °C 27.5 °F /  -2.5 °C 30.59in /  1035.8hPa NNE 0.1mph /  0.2km/h 2mph /  3.2km/h 42% 0.00in /  0mm 571 W/m2
12:29 49.8 °F /  9.9 °C 28.6 °F /  -1.9 °C 30.59in /  1035.8hPa NNE 0.2mph /  0.3km/h 2mph /  3.2km/h 43.7% 0.00in /  0mm 417 W/m2
12:34 50.3 °F /  10.2 °C 28.1 °F /  -2.2 °C 30.59in /  1035.8hPa NNE 0.1mph /  0.2km/h 3mph /  4.8km/h 42% 0.00in /  0mm 425 W/m2
12:39 50.8 °F /  10.4 °C 28 °F /  -2.2 °C 30.59in /  1035.8hPa NNE 0.5mph /  0.8km/h 3mph /  4.8km/h 41% 0.00in /  0mm 343 W/m2
12:44 50.9 °F /  10.5 °C 26.3 °F /  -3.2 °C 30.59in /  1035.8hPa NNE 0.1mph /  0.2km/h 3mph /  4.8km/h 38.1% 0.00in /  0mm 441 W/m2
12:49 50.8 °F /  10.4 °C 26.6 °F /  -3 °C 30.58in /  1035.4hPa Calm   3mph /  4.8km/h 38.8% 0.00in /  0mm 162 W/m2
12:54 50.8 °F /  10.4 °C 27.3 °F /  -2.6 °C 30.58in /  1035.4hPa NNE 0.1mph /  0.2km/h 3mph /  4.8km/h 40% 0.00in /  0mm 417 W/m2
12:59 50.8 °F /  10.4 °C 27.1 °F /  -2.7 °C 30.59in /  1035.8hPa Calm   3mph /  4.8km/h 39.6% 0.00in /  0mm 441 W/m2
13:04 50.9 °F /  10.5 °C 27 °F /  -2.8 °C 30.58in /  1035.4hPa Calm   3mph /  4.8km/h 39.3% 0.00in /  0mm 411 W/m2
13:09 51.2 °F /  10.7 °C 27.8 °F /  -2.3 °C 30.58in /  1035.4hPa Calm   1mph /  1.6km/h 40.1% 0.00in /  0mm 339 W/m2
13:14 51.6 °F /  10.9 °C 27.7 °F /  -2.4 °C 30.58in /  1035.4hPa NNE 0.3mph /  0.5km/h 4mph /  6.4km/h 39.3% 0.00in /  0mm 345 W/m2
13:19 52 °F /  11.1 °C 27.2 °F /  -2.7 °C 30.58in /  1035.4hPa NNE 0.2mph /  0.3km/h 4mph /  6.4km/h 38% 0.00in /  0mm 306 W/m2
13:24 52.4 °F /  11.3 °C 27.7 °F /  -2.4 °C 30.58in /  1035.4hPa NNE 0.2mph /  0.3km/h 4mph /  6.4km/h 38.2% 0.00in /  0mm 202 W/m2
13:29 52.8 °F /  11.6 °C 26.2 °F /  -3.2 °C 30.58in /  1035.4hPa Calm   4mph /  6.4km/h 35.3% 0.00in /  0mm 383 W/m2
13:34 53 °F /  11.7 °C 26 °F /  -3.3 °C 30.58in /  1035.4hPa NNE 0.3mph /  0.5km/h 4mph /  6.4km/h 34.9% 0.00in /  0mm 452 W/m2
13:39 53.2 °F /  11.8 °C 26.9 °F /  -2.8 °C 30.57in /  1035.1hPa Calm   3mph /  4.8km/h 35.9% 0.00in /  0mm 359 W/m2
13:44 53.3 °F /  11.8 °C 25.7 °F /  -3.5 °C 30.57in /  1035.1hPa Calm   3mph /  4.8km/h 34% 0.00in /  0mm 153 W/m2
13:49 53.4 °F /  11.9 °C 26.2 °F /  -3.2 °C 30.57in /  1035.1hPa Calm   3mph /  4.8km/h 34.7% 0.00in /  0mm 450 W/m2
13:54 53.7 °F /  12.1 °C 26.8 °F /  -2.9 °C 30.57in /  1035.1hPa NNE 0.1mph /  0.2km/h 3mph /  4.8km/h 35.2% 0.00in /  0mm 441 W/m2
13:59 53.7 °F /  12.1 °C 26.3 °F /  -3.2 °C 30.57in /  1035.1hPa Calm   3mph /  4.8km/h 34.5% 0.00in /  0mm 392 W/m2
14:04 53.5 °F /  11.9 °C 26.1 °F /  -3.3 °C 30.57in /  1035.1hPa NNE 0.1mph /  0.2km/h 3mph /  4.8km/h 34.3% 0.00in /  0mm 323 W/m2
14:09 53.3 °F /  11.8 °C 26.3 °F /  -3.2 °C 30.57in /  1035.1hPa Calm   2mph /  3.2km/h 34.8% 0.00in /  0mm 51 W/m2
14:14 53.2 °F /  11.8 °C 26.5 °F /  -3.1 °C 30.57in /  1035.1hPa Calm   2mph /  3.2km/h 35.3% 0.00in /  0mm 213 W/m2
14:19 53.1 °F /  11.7 °C 26.7 °F /  -2.9 °C 30.56in /  1034.8hPa NNE 0.2mph /  0.3km/h 2mph /  3.2km/h 35.8% 0.00in /  0mm 243 W/m2
14:24 53 °F /  11.7 °C 26.8 °F /  -2.9 °C 30.56in /  1034.8hPa North 0.4mph /  0.6km/h 4mph /  6.4km/h 36% 0.00in /  0mm 227 W/m2
14:29 52.9 °F /  11.6 °C 26.5 °F /  -3.1 °C 30.56in /  1034.8hPa North 0.1mph /  0.2km/h 4mph /  6.4km/h 35.6% 0.00in /  0mm 178 W/m2
14:34 52.7 °F /  11.5 °C 26.4 °F /  -3.1 °C 30.55in /  1034.4hPa Calm   4mph /  6.4km/h 35.9% 0.00in /  0mm 30 W/m2
14:39 52.6 °F /  11.4 °C 26.5 °F /  -3.1 °C 30.55in /  1034.4hPa Calm     36.2% 0.00in /  0mm 28 W/m2
14:44 52.5 °F /  11.4 °C 26.8 °F /  -2.9 °C 30.55in /  1034.4hPa Calm   1mph /  1.6km/h 36.6% 0.00in /  0mm 26 W/m2
14:49 52.5 °F /  11.4 °C 27 °F /  -2.8 °C 30.55in /  1034.4hPa Calm   1mph /  1.6km/h 37% 0.00in /  0mm 25 W/m2
14:54 52.5 °F /  11.4 °C 27 °F /  -2.8 °C 30.55in /  1034.4hPa North 0.1mph /  0.2km/h 2mph /  3.2km/h 37.1% 0.00in /  0mm 25 W/m2
14:59 52.5 °F /  11.4 °C 27.7 °F /  -2.4 °C 30.54in /  1034.1hPa North 0.1mph /  0.2km/h 2mph /  3.2km/h 38% 0.00in /  0mm 25 W/m2
15:04 52.6 °F /  11.4 °C 27.5 °F /  -2.5 °C 30.55in /  1034.4hPa Calm   2mph /  3.2km/h 37.6% 0.00in /  0mm 23 W/m2
15:09 52.7 °F /  11.5 °C 27.4 °F /  -2.6 °C 30.54in /  1034.1hPa North 0.1mph /  0.2km/h 2mph /  3.2km/h 37.3% 0.00in /  0mm 23 W/m2
15:14 52.8 °F /  11.6 °C 27.3 °F /  -2.6 °C 30.54in /  1034.1hPa North 0.3mph /  0.5km/h 2mph /  3.2km/h 37% 0.00in /  0mm 21 W/m2
15:19 52.8 °F /  11.6 °C 27.7 °F /  -2.4 °C 30.54in /  1034.1hPa Calm   2mph /  3.2km/h 37.7% 0.00in /  0mm 21 W/m2
15:24 52.8 °F /  11.6 °C 27.9 °F /  -2.3 °C 30.53in /  1033.7hPa Calm   2mph /  3.2km/h 38% 0.00in /  0mm 21 W/m2
15:29 52.8 °F /  11.6 °C 27.9 °F /  -2.3 °C 30.53in /  1033.7hPa North 0.1mph /  0.2km/h 2mph /  3.2km/h 38% 0.00in /  0mm 19 W/m2
15:34 52.8 °F /  11.6 °C 27.6 °F /  -2.4 °C 30.53in /  1033.7hPa Calm   2mph /  3.2km/h 37.5% 0.00in /  0mm 18 W/m2
15:39 52.8 °F /  11.6 °C 28.1 °F /  -2.2 °C 30.53in /  1033.7hPa North 0.1mph /  0.2km/h 3mph /  4.8km/h 38.4% 0.00in /  0mm 18 W/m2
15:44 52.8 °F /  11.6 °C 28.2 °F /  -2.1 °C 30.53in /  1033.7hPa North 0.1mph /  0.2km/h 3mph /  4.8km/h 38.5% 0.00in /  0mm 18 W/m2
15:49 52.7 °F /  11.5 °C 27.8 °F /  -2.3 °C 30.53in /  1033.7hPa Calm   3mph /  4.8km/h 38% 0.00in /  0mm 16 W/m2
15:52 52.6 °F /  11.4 °C 27.8 °F /  -2.3 °C 30.53in /  1033.7hPa Calm   3mph /  4.8km/h 38% 0.00in /  0mm 14 W/m2
16:09 52.5 °F /  11.4 °C 28.5 °F /  -1.9 °C 30.53in /  1033.7hPa North 0.2mph /  0.3km/h 3mph /  4.8km/h 39.3% 0.00in /  0mm 12 W/m2
16:14 52.5 °F /  11.4 °C 28.7 °F /  -1.8 °C 30.53in /  1033.7hPa Calm   3mph /  4.8km/h 39.7% 0.00in /  0mm 11 W/m2
16:19 52.4 °F /  11.3 °C 30 °F /  -1.1 °C 30.52in /  1033.4hPa North 0.7mph /  1.1km/h 3mph /  4.8km/h 42.1% 0.00in /  0mm 9 W/m2
16:24 52.2 °F /  11.2 °C 31.5 °F /  -0.3 °C 30.52in /  1033.4hPa North 0.4mph /  0.6km/h 3mph /  4.8km/h 45% 0.00in /  0mm 7 W/m2
16:29 52 °F /  11.1 °C 32.5 °F /  0.3 °C 30.52in /  1033.4hPa North 0.5mph /  0.8km/h 3mph /  4.8km/h 47.2% 0.00in /  0mm 0 W/m2
16:34 51.8 °F /  11 °C 33.2 °F /  0.7 °C 30.52in /  1033.4hPa North 0.4mph /  0.6km/h 3mph /  4.8km/h 49% 0.00in /  0mm 0 W/m2
16:39 51.5 °F /  10.8 °C 33.7 °F /  0.9 °C 30.52in /  1033.4hPa North 0.2mph /  0.3km/h 4mph /  6.4km/h 50.4% 0.00in /  0mm 0 W/m2
16:44 51.3 °F /  10.7 °C 33.9 °F /  1.1 °C 30.52in /  1033.4hPa North 0.1mph /  0.2km/h 4mph /  6.4km/h 51.2% 0.00in /  0mm 0 W/m2
16:49 51 °F /  10.6 °C 34 °F /  1.1 °C 30.52in /  1033.4hPa North 0.1mph /  0.2km/h 4mph /  6.4km/h 52% 0.00in /  0mm 0 W/m2
16:54 50.8 °F /  10.4 °C 33.8 °F /  1 °C 30.52in /  1033.4hPa Calm   4mph /  6.4km/h 52% 0.00in /  0mm 0 W/m2
16:59 50.5 °F /  10.3 °C 34.1 °F /  1.2 °C 30.52in /  1033.4hPa Calm   4mph /  6.4km/h 53% 0.00in /  0mm 0 W/m2
17:04 50.3 °F /  10.2 °C 33.8 °F /  1 °C 30.52in /  1033.4hPa Calm   4mph /  6.4km/h 53% 0.00in /  0mm 0 W/m2
17:09 50.1 °F /  10.1 °C 33.8 °F /  1 °C 30.52in /  1033.4hPa Calm   1mph /  1.6km/h 53.4% 0.00in /  0mm 0 W/m2
17:14 49.9 °F /  9.9 °C 33.9 °F /  1.1 °C 30.52in /  1033.4hPa Calm   1mph /  1.6km/h 54% 0.00in /  0mm 0 W/m2
17:19 49.7 °F /  9.8 °C 33.7 °F /  0.9 °C 30.52in /  1033.4hPa Calm   1mph /  1.6km/h 54% 0.00in /  0mm 0 W/m2
17:24 49.5 °F /  9.7 °C 33.8 °F /  1 °C 30.52in /  1033.4hPa Calm   1mph /  1.6km/h 54.7% 0.00in /  0mm 0 W/m2
17:29 49.3 °F /  9.6 °C 33.8 °F /  1 °C 30.52in /  1033.4hPa Calm   1mph /  1.6km/h 55% 0.00in /  0mm 0 W/m2
17:34 49.1 °F /  9.5 °C 33.6 °F /  0.9 °C 30.52in /  1033.4hPa Calm   1mph /  1.6km/h 55% 0.00in /  0mm 0 W/m2
17:39 48.8 °F /  9.3 °C 33.4 °F /  0.8 °C 30.52in /  1033.4hPa Calm     55% 0.00in /  0mm 0 W/m2
17:44 48.7 °F /  9.3 °C 33.2 °F /  0.7 °C 30.52in /  1033.4hPa Calm     54.9% 0.00in /  0mm 0 W/m2
17:49 48.6 °F /  9.2 °C 32.7 °F /  0.4 °C 30.51in /  1033.1hPa Calm     54% 0.00in /  0mm 0 W/m2
17:54 48.4 °F /  9.1 °C 32.4 °F /  0.2 °C 30.51in /  1033.1hPa Calm     53.8% 0.00in /  0mm 0 W/m2
17:59 48.3 °F /  9.1 °C 32 °F /  0 °C 30.51in /  1033.1hPa Calm     53.1% 0.00in /  0mm 0 W/m2
18:04 48.1 °F /  8.9 °C 31.8 °F /  -0.1 °C 30.51in /  1033.1hPa Calm     53% 0.00in /  0mm 0 W/m2
18:09 48 °F /  8.9 °C 31.7 °F /  -0.2 °C 30.51in /  1033.1hPa Calm     53% 0.00in /  0mm 0 W/m2
18:14 47.8 °F /  8.8 °C 31.5 °F /  -0.3 °C 30.51in /  1033.1hPa Calm     53% 0.00in /  0mm 0 W/m2
18:19 47.6 °F /  8.7 °C 31.3 °F /  -0.4 °C 30.51in /  1033.1hPa Calm     53% 0.00in /  0mm 0 W/m2
18:24 47.4 °F /  8.6 °C 31.4 °F /  -0.3 °C 30.51in /  1033.1hPa Calm     53.6% 0.00in /  0mm 0 W/m2
18:29 47.2 °F /  8.4 °C 31.5 °F /  -0.3 °C 30.51in /  1033.1hPa Calm     54% 0.00in /  0mm 0 W/m2
18:34 47.1 °F /  8.4 °C 31.3 °F /  -0.4 °C 30.52in /  1033.4hPa Calm     54% 0.00in /  0mm 0 W/m2
18:39 46.9 °F /  8.3 °C 31.2 °F /  -0.4 °C 30.52in /  1033.4hPa Calm     54% 0.00in /  0mm 0 W/m2
18:44 46.7 °F /  8.2 °C 31 °F /  -0.6 °C 30.52in /  1033.4hPa Calm   1mph /  1.6km/h 54.1% 0.00in /  0mm 0 W/m2
18:49 46.5 °F /  8.1 °C 31.3 °F /  -0.4 °C 30.51in /  1033.1hPa Calm   1mph /  1.6km/h 55.1% 0.00in /  0mm 0 W/m2
18:54 46.3 °F /  7.9 °C 31.6 °F /  -0.2 °C 30.51in /  1033.1hPa Calm   1mph /  1.6km/h 56.4% 0.00in /  0mm 0 W/m2
18:59 46.1 °F /  7.8 °C 32.4 °F /  0.2 °C 30.51in /  1033.1hPa Calm   1mph /  1.6km/h 58.5% 0.00in /  0mm 0 W/m2
19:04 46 °F /  7.8 °C 33 °F /  0.6 °C 30.51in /  1033.1hPa Calm   1mph /  1.6km/h 60.2% 0.00in /  0mm 0 W/m2
19:09 45.9 °F /  7.7 °C 33.5 °F /  0.8 °C 30.51in /  1033.1hPa North 0.1mph /  0.2km/h 2mph /  3.2km/h 61.7% 0.00in /  0mm 0 W/m2
19:14 45.9 °F /  7.7 °C 33.8 °F /  1 °C 30.51in /  1033.1hPa Calm   2mph /  3.2km/h 62.3% 0.00in /  0mm 0 W/m2
19:19 45.9 °F /  7.7 °C 34.1 °F /  1.2 °C 30.50in /  1032.7hPa North 0.2mph /  0.3km/h 3mph /  4.8km/h 63.3% 0.00in /  0mm 0 W/m2
19:24 45.9 °F /  7.7 °C 34.4 °F /  1.3 °C 30.50in /  1032.7hPa Calm   3mph /  4.8km/h 64% 0.00in /  0mm 0 W/m2
19:29 45.8 °F /  7.7 °C 34.4 °F /  1.3 °C 30.50in /  1032.7hPa North 0.5mph /  0.8km/h 3mph /  4.8km/h 64% 0.00in /  0mm 0 W/m2
19:34 45.8 °F /  7.7 °C 34.7 °F /  1.5 °C 30.50in /  1032.7hPa Calm   3mph /  4.8km/h 64.9% 0.00in /  0mm 0 W/m2
19:39 45.7 °F /  7.6 °C 34.6 °F /  1.4 °C 30.50in /  1032.7hPa Calm   2mph /  3.2km/h 65% 0.00in /  0mm 0 W/m2
19:44 45.5 °F /  7.5 °C 34.8 °F /  1.6 °C 30.49in /  1032.4hPa Calm   2mph /  3.2km/h 65.8% 0.00in /  0mm 0 W/m2
19:49 45.3 °F /  7.4 °C 34.6 °F /  1.4 °C 30.50in /  1032.7hPa Calm   2mph /  3.2km/h 66% 0.00in /  0mm 0 W/m2
19:54 45.2 °F /  7.3 °C 34.8 °F /  1.6 °C 30.50in /  1032.7hPa Calm   2mph /  3.2km/h 66.8% 0.00in /  0mm 0 W/m2
19:59 45 °F /  7.2 °C 34.9 °F /  1.6 °C 30.50in /  1032.7hPa Calm   2mph /  3.2km/h 67.4% 0.00in /  0mm 0 W/m2
20:09 44.7 °F /  7.1 °C 35.2 °F /  1.8 °C 30.49in /  1032.4hPa Calm     69.1% 0.00in /  0mm 0 W/m2
20:14 44.6 °F /  7 °C 35.4 °F /  1.9 °C 30.49in /  1032.4hPa Calm     70% 0.00in /  0mm 0 W/m2
20:19 44.5 °F /  6.9 °C 35.4 °F /  1.9 °C 30.50in /  1032.7hPa Calm     70% 0.00in /  0mm 0 W/m2
20:24 44.4 °F /  6.9 °C 35.6 °F /  2 °C 30.50in /  1032.7hPa Calm     71% 0.00in /  0mm 0 W/m2
20:29 44.3 °F /  6.8 °C 35.5 °F /  1.9 °C 30.49in /  1032.4hPa Calm     71% 0.00in /  0mm 0 W/m2
20:34 44.3 °F /  6.8 °C 35.8 °F /  2.1 °C 30.49in /  1032.4hPa Calm     71.9% 0.00in /  0mm 0 W/m2
20:39 44.2 °F /  6.8 °C 35.8 °F /  2.1 °C 30.49in /  1032.4hPa Calm     72% 0.00in /  0mm 0 W/m2
20:44 44.2 °F /  6.8 °C 35.8 °F /  2.1 °C 30.49in /  1032.4hPa Calm     72% 0.00in /  0mm 0 W/m2
20:49 44.2 °F /  6.8 °C 35.7 °F /  2.1 °C 30.49in /  1032.4hPa Calm     72% 0.00in /  0mm 0 W/m2
20:54 44.1 °F /  6.7 °C 35.7 °F /  2.1 °C 30.49in /  1032.4hPa Calm     72% 0.00in /  0mm 0 W/m2
20:59 44 °F /  6.7 °C 35.9 °F /  2.2 °C 30.49in /  1032.4hPa Calm     73% 0.00in /  0mm 0 W/m2
21:04 43.9 °F /  6.6 °C 36 °F /  2.2 °C 30.48in /  1032.1hPa Calm     73.5% 0.00in /  0mm 0 W/m2
21:09 43.9 °F /  6.6 °C 36.2 °F /  2.3 °C 30.49in /  1032.4hPa Calm     74% 0.00in /  0mm 0 W/m2
21:14 43.9 °F /  6.6 °C 36.4 °F /  2.4 °C 30.49in /  1032.4hPa Calm     74.7% 0.00in /  0mm 0 W/m2
21:19 44 °F /  6.7 °C 36.6 °F /  2.6 °C 30.49in /  1032.4hPa Calm     75% 0.00in /  0mm 0 W/m2
21:24 44 °F /  6.7 °C 36.6 °F /  2.6 °C 30.48in /  1032.1hPa Calm     75% 0.00in /  0mm 0 W/m2
21:29 44 °F /  6.7 °C 36.6 °F /  2.6 °C 30.48in /  1032.1hPa Calm     75% 0.00in /  0mm 0 W/m2
21:34 43.9 °F /  6.6 °C 36.6 °F /  2.6 °C 30.48in /  1032.1hPa Calm     75.1% 0.00in /  0mm 0 W/m2
21:39 43.9 °F /  6.6 °C 36.8 °F /  2.7 °C 30.48in /  1032.1hPa Calm     76% 0.00in /  0mm 0 W/m2
21:44 43.8 °F /  6.6 °C 36.7 °F /  2.6 °C 30.48in /  1032.1hPa Calm     76% 0.00in /  0mm 0 W/m2
21:49 43.6 °F /  6.4 °C 36.7 °F /  2.6 °C 30.48in /  1032.1hPa Calm     76.2% 0.00in /  0mm 0 W/m2
21:54 43.5 °F /  6.4 °C 36.8 °F /  2.7 °C 30.47in /  1031.7hPa Calm     77% 0.00in /  0mm 0 W/m2
21:59 43.5 °F /  6.4 °C 36.9 °F /  2.7 °C 30.47in /  1031.7hPa Calm     77.5% 0.00in /  0mm 0 W/m2
22:04 43.4 °F /  6.3 °C 37 °F /  2.8 °C 30.47in /  1031.7hPa Calm     78% 0.00in /  0mm 0 W/m2
22:09 43.4 °F /  6.3 °C 37.2 °F /  2.9 °C 30.47in /  1031.7hPa Calm     78.6% 0.00in /  0mm 0 W/m2
22:14 43.4 °F /  6.3 °C 37 °F /  2.8 °C 30.47in /  1031.7hPa Calm     78% 0.00in /  0mm 0 W/m2
22:19 43.3 °F /  6.3 °C 37 °F /  2.8 °C 30.47in /  1031.7hPa Calm     78.1% 0.00in /  0mm 0 W/m2
22:24 43.3 °F /  6.3 °C 37.2 °F /  2.9 °C 30.47in /  1031.7hPa Calm     79% 0.00in /  0mm 0 W/m2
22:29 43.2 °F /  6.2 °C 37.2 °F /  2.9 °C 30.47in /  1031.7hPa Calm     79% 0.00in /  0mm 0 W/m2
22:34 43.3 °F /  6.3 °C 37.5 °F /  3.1 °C 30.47in /  1031.7hPa Calm     80% 0.00in /  0mm 0 W/m2
22:39 43.3 °F /  6.3 °C 37.6 °F /  3.1 °C 30.47in /  1031.7hPa Calm     80% 0.00in /  0mm 0 W/m2
22:44 43.4 °F /  6.3 °C 37.7 °F /  3.2 °C 30.47in /  1031.7hPa Calm     80% 0.00in /  0mm 0 W/m2
22:49 43.4 °F /  6.3 °C 37.6 °F /  3.1 °C 30.47in /  1031.7hPa Calm     80% 0.00in /  0mm 0 W/m2
22:54 43.3 °F /  6.3 °C 37.6 °F /  3.1 °C 30.47in /  1031.7hPa Calm     80% 0.00in /  0mm 0 W/m2
22:59 43.3 °F /  6.3 °C 37.5 °F /  3.1 °C 30.47in /  1031.7hPa Calm     80% 0.00in /  0mm 0 W/m2
23:00 43.2 °F /  6.2 °C 37.5 °F /  3.1 °C 30.47in /  1031.7hPa Calm     80% 0.00in /  0mm 0 W/m2
23:09 43.1 °F /  6.2 °C 37.3 °F /  2.9 °C 30.47in /  1031.7hPa Calm     80% 0.00in /  0mm 0 W/m2
23:14 42.9 °F /  6.1 °C 37.2 °F /  2.9 °C 30.46in /  1031.4hPa Calm     80% 0.00in /  0mm 0 W/m2
23:19 42.7 °F /  5.9 °C 37 °F /  2.8 °C 30.47in /  1031.7hPa Calm     80% 0.00in /  0mm 0 W/m2
23:24 42.5 °F /  5.8 °C 36.9 °F /  2.7 °C 30.47in /  1031.7hPa Calm     80.5% 0.00in /  0mm 0 W/m2
23:29 42.3 °F /  5.7 °C 36.9 °F /  2.7 °C 30.47in /  1031.7hPa Calm     81% 0.00in /  0mm 0 W/m2
23:34 42.1 °F /  5.6 °C 37 °F /  2.8 °C 30.47in /  1031.7hPa Calm     81.7% 0.00in /  0mm 0 W/m2
23:39 42 °F /  5.6 °C 37 °F /  2.8 °C 30.47in /  1031.7hPa Calm     82.2% 0.00in /  0mm 0 W/m2
23:44 42 °F /  5.6 °C 37.2 °F /  2.9 °C 30.46in /  1031.4hPa Calm     83% 0.00in /  0mm 0 W/m2
23:49 42 °F /  5.6 °C 37.4 °F /  3 °C 30.46in /  1031.4hPa Calm     83.7% 0.00in /  0mm 0 W/m2
23:54 42.1 °F /  5.6 °C 37.6 °F /  3.1 °C 30.46in /  1031.4hPa Calm     84% 0.00in /  0mm 0 W/m2
23:59 42.1 °F /  5.6 °C 37.6 °F /  3.1 °C 30.46in /  1031.4hPa Calm     83.9% 0.00in /  0mm 0 W/m2
Hartford County Weather
Compliments of Weather Underground - 2 mb